Kinyo Maru No.2 — JD3099 — position and weather

sailwx.info

Track history (hours):
 
Tides and Currents Weather Stations Pressure Air Temp Water Temp Dewpoint Dewpoint Depression Visibility Wind Speed Wind Dir Waves Ship Positions

Kinyo Maru No.2

Last reported at 2017-Oct-18 09:51 UTC. Time now 2017-Oct-19 14:30 UTC.
Position N 34°33' E 134°45'.

Length 104 m; draft 4.8 m.

Type: Tanker. MMSI: 431001757.

Date/timePositionNaut miles runAvg speedWind from/ knotsBaromVisibWave heightAir tempDewpointWater temp
2017-Oct-18 09:51N 34°33' E 134°45'616.6
2017-Oct-18 09:30N 34°34' E 134°51'816.6
2017-Oct-18 09:01N 34°38' E 135°00'611.9
2017-Oct-18 08:30N 34°33' E 135°04'914.5
2017-Oct-18 07:52N 34°24' E 135°02'714.2
2017-Oct-18 07:21N 34°17' E 134°59'514.2
2017-Oct-18 07:00N 34°13' E 135°03'7 1.0
2017-Oct-18 00:12N 34°07' E 135°07'0 0.7
2017-Oct-17 23:58N 34°07' E 135°07'0 0.1
2017-Oct-17 22:31N 34°08' E 135°07'0 6.6
2017-Oct-17 22:30N 34°08' E 135°07'510.2
2017-Oct-17 22:00N 34°11' E 135°03'712.5
2017-Oct-17 21:29N 34°17' E 134°58'713.0
2017-Oct-17 20:58N 34°23' E 134°60'613.4
2017-Oct-17 20:29N 34°30' E 135°02'612.3
2017-Oct-17 20:01N 34°35' E 135°03'610.5
2017-Oct-17 19:28N 34°36' E 134°56'  
2017-Oct-15 10:50N 34°34' E 134°49'515.1
2017-Oct-15 10:30N 34°36' E 134°55'713.3
2017-Oct-15 10:00N 34°36' E 135°03'713.8
2017-Oct-15 09:30N 34°35' E 135°11'713.8
2017-Oct-15 09:00N 34°33' E 135°20'4 0.4
2017-Oct-14 22:55N 34°32' E 135°24'0 0.5
2017-Oct-14 22:31N 34°32' E 135°24'4 7.8
2017-Oct-14 22:01N 34°32' E 135°19'1 3.0
2017-Oct-14 21:30N 34°31' E 135°18'4 7.9
2017-Oct-14 21:00N 34°29' E 135°14'713.2
2017-Oct-14 20:30N 34°25' E 135°08'713.5
2017-Oct-14 19:59N 34°20' E 135°01'510.8
2017-Oct-14 19:30N 34°15' E 135°01'612.8
2017-Oct-14 19:01N 34°13' E 135°08'0 0.3
2017-Oct-14 18:30N 34°13' E 135°08'0 0.0
2017-Oct-14 18:00N 34°13' E 135°08'0 0.0
2017-Oct-14 17:30N 34°13' E 135°08'0 0.0
2017-Oct-14 17:00N 34°13' E 135°08'0 0.0
2017-Oct-14 16:30N 34°13' E 135°08'0 0.0
2017-Oct-14 16:00N 34°13' E 135°08'0 0.0
2017-Oct-14 15:30N 34°13' E 135°08'0 0.0
2017-Oct-14 15:00N 34°13' E 135°08'0 0.0
2017-Oct-14 14:30N 34°13' E 135°08'0 0.0
2017-Oct-14 14:00N 34°13' E 135°08'0 0.0
2017-Oct-14 13:30N 34°13' E 135°08'0 0.0
2017-Oct-14 13:00N 34°13' E 135°08'0 0.0
2017-Oct-14 12:30N 34°13' E 135°08'0 0.0
2017-Oct-14 12:00N 34°13' E 135°08'0 0.0
2017-Oct-14 11:30N 34°13' E 135°08'0 0.0
2017-Oct-14 11:00N 34°13' E 135°08'0 0.0
2017-Oct-14 10:30N 34°13' E 135°08'0 0.0
2017-Oct-14 10:00N 34°13' E 135°08'0 0.0
2017-Oct-14 09:30N 34°13' E 135°08'0 0.0
2017-Oct-14 09:00N 34°13' E 135°08'0 0.0
2017-Oct-14 08:30N 34°13' E 135°08'0 0.0
2017-Oct-14 08:00N 34°13' E 135°08'0 0.0
2017-Oct-14 07:30N 34°13' E 135°08'0 0.0
2017-Oct-14 07:00N 34°13' E 135°08'0 0.0
2017-Oct-14 06:30N 34°13' E 135°08'0 0.0
2017-Oct-14 06:00N 34°13' E 135°08'0 0.0
2017-Oct-14 05:30N 34°13' E 135°08'0 0.0
2017-Oct-14 05:00N 34°13' E 135°08'0 0.0
2017-Oct-14 04:30N 34°13' E 135°08'0 0.0
2017-Oct-14 04:00N 34°13' E 135°08'0 0.0
2017-Oct-14 03:30N 34°13' E 135°08'0 0.0
2017-Oct-14 03:00N 34°13' E 135°08'0 0.0
2017-Oct-14 02:30N 34°13' E 135°08'0 0.0
2017-Oct-14 02:00N 34°13' E 135°08'0 0.0
2017-Oct-14 01:30N 34°13' E 135°08'0 0.0
2017-Oct-14 01:00N 34°13' E 135°08'0 0.0
2017-Oct-14 00:30N 34°13' E 135°08'0 0.0
2017-Oct-14 00:00N 34°13' E 135°08'0 0.0
2017-Oct-13 23:30N 34°13' E 135°08'0 0.0
2017-Oct-13 23:00N 34°13' E 135°08'0 0.0
2017-Oct-13 22:30N 34°13' E 135°08'0 0.0
2017-Oct-13 22:00N 34°13' E 135°08'0 0.0
2017-Oct-13 21:30N 34°13' E 135°08'0 0.0
2017-Oct-13 21:00N 34°13' E 135°08'0 0.0
2017-Oct-13 20:30N 34°13' E 135°08'0 0.0
2017-Oct-13 20:00N 34°13' E 135°08'0 0.0
2017-Oct-13 19:30N 34°13' E 135°08'0 0.0
2017-Oct-13 19:00N 34°13' E 135°08'0 0.0
2017-Oct-13 18:30N 34°13' E 135°08'0 0.0
2017-Oct-13 18:00N 34°13' E 135°08'0 0.0
2017-Oct-13 17:30N 34°13' E 135°08'0 0.0
2017-Oct-13 17:00N 34°13' E 135°08'0 0.0
2017-Oct-13 16:30N 34°13' E 135°08'0 0.0
2017-Oct-13 16:00N 34°13' E 135°08'0 0.0
2017-Oct-13 15:30N 34°13' E 135°08'0 0.0
2017-Oct-13 15:00N 34°13' E 135°08'0 0.0
2017-Oct-13 14:30N 34°13' E 135°08'0 0.0
2017-Oct-13 14:00N 34°13' E 135°08'0 0.0
2017-Oct-13 13:30N 34°13' E 135°08'0 0.0
2017-Oct-13 13:00N 34°13' E 135°08'0 0.0
2017-Oct-13 12:30N 34°13' E 135°08'0 0.0
2017-Oct-13 11:54N 34°13' E 135°08'0 0.0
2017-Oct-13 11:30N 34°13' E 135°08'0 0.0
2017-Oct-13 11:00N 34°13' E 135°08'0 0.0
2017-Oct-13 10:30N 34°13' E 135°08'0 0.0
2017-Oct-13 10:00N 34°13' E 135°08'0 0.0
2017-Oct-13 09:30N 34°13' E 135°08'0 0.0
2017-Oct-13 09:00N 34°13' E 135°08'0 0.0
2017-Oct-13 08:30N 34°13' E 135°08'0 0.0
2017-Oct-13 08:01N 34°13' E 135°08'2 4.0
2017-Oct-13 07:30N 34°12' E 135°06'5 9.1
2017-Oct-13 07:00N 34°07' E 135°07'0 0.0
2017-Oct-12 22:06N 34°07' E 135°07'0 0.0
2017-Oct-12 22:00N 34°07' E 135°07'1 1.3
2017-Oct-12 21:30N 34°08' E 135°07'0 0.6
2017-Oct-12 21:00N 34°08' E 135°07'0 0.0
2017-Oct-12 20:30N 34°08' E 135°07'0 0.0
2017-Oct-12 20:00N 34°08' E 135°07'0 0.0
2017-Oct-12 19:30N 34°08' E 135°07'0 0.0
2017-Oct-12 19:00N 34°08' E 135°07'0 0.0
2017-Oct-12 18:30N 34°08' E 135°07'0 0.0
2017-Oct-12 18:00N 34°08' E 135°07'0 0.0
2017-Oct-12 17:30N 34°08' E 135°07'0 0.0
2017-Oct-12 17:00N 34°08' E 135°07'0 0.0
2017-Oct-12 16:30N 34°08' E 135°07'0 0.0
2017-Oct-12 15:57N 34°08' E 135°07'0 0.0
2017-Oct-12 15:27N 34°08' E 135°07'0 0.0
2017-Oct-12 15:00N 34°08' E 135°07'0 0.0
2017-Oct-12 14:30N 34°08' E 135°07'0 0.0
2017-Oct-12 14:00N 34°08' E 135°07'0 0.0
2017-Oct-12 13:30N 34°08' E 135°07'0 0.0
2017-Oct-12 13:00N 34°08' E 135°07'0 0.0
2017-Oct-12 12:27N 34°08' E 135°07'0 0.0
2017-Oct-12 11:54N 34°08' E 135°07'0 0.0
2017-Oct-12 11:30N 34°08' E 135°07'1 2.5
2017-Oct-12 11:00N 34°09' E 135°06'713.3
2017-Oct-12 10:30N 34°14' E 135°01'612.7
2017-Oct-12 10:00N 34°20' E 134°60'713.5
2017-Oct-12 09:30N 34°25' E 135°06'714.1
2017-Oct-12 09:00N 34°29' E 135°13'713.1
2017-Oct-12 08:31N 34°32' E 135°20'0 0.2
2017-Oct-12 07:56N 34°32' E 135°20'0 0.0
2017-Oct-12 07:20N 34°32' E 135°20'0 0.4
2017-Oct-12 07:00N 34°32' E 135°20'5 8.9
2017-Oct-12 06:28N 34°33' E 135°26'0 0.0
2017-Oct-11 23:53N 34°33' E 135°26'0 0.0
2017-Oct-11 23:23N 34°33' E 135°26'0 0.0
2017-Oct-11 22:53N 34°33' E 135°26'0 0.0
2017-Oct-11 22:29N 34°33' E 135°26'0 0.0
2017-Oct-11 21:53N 34°33' E 135°26'0 0.0
2017-Oct-11 21:29N 34°33' E 135°26'0 0.0
2017-Oct-11 20:47N 34°33' E 135°26'0 0.0
2017-Oct-11 20:23N 34°33' E 135°26'0 0.0
2017-Oct-11 19:47N 34°33' E 135°26'0 0.0
2017-Oct-11 19:17N 34°33' E 135°26'0 0.0
2017-Oct-11 18:53N 34°33' E 135°26'0 0.0
2017-Oct-11 18:05N 34°33' E 135°26'0 0.1
2017-Oct-11 17:59N 34°33' E 135°26'0 0.0
2017-Oct-11 17:29N 34°33' E 135°26'0 0.0
2017-Oct-11 16:59N 34°33' E 135°26'6 0.3
2017-Oct-11 00:00N 34°32' E 135°19'0 0.0
2017-Oct-10 23:30N 34°32' E 135°19'0 0.0
2017-Oct-10 23:00N 34°32' E 135°19'0 0.0
2017-Oct-10 22:29N 34°32' E 135°19'0 0.0
2017-Oct-10 21:59N 34°32' E 135°19'0 0.1
2017-Oct-10 21:30N 34°32' E 135°19'0 0.0
2017-Oct-10 21:00N 34°32' E 135°19'0 0.0
2017-Oct-10 20:30N 34°32' E 135°19'0 0.1
2017-Oct-10 20:00N 34°32' E 135°19'511.1
2017-Oct-10 19:30N 34°29' E 135°13'612.8
2017-Oct-10 19:00N 34°25' E 135°08'612.7
2017-Oct-10 18:30N 34°20' E 135°02'611.1
2017-Oct-10 18:00N 34°15' E 134°60'713.8
2017-Oct-10 17:30N 34°10' E 135°05'3 6.6
2017-Oct-10 17:00N 34°07' E 135°07'0 0.0
2017-Oct-10 00:41N 34°07' E 135°07'0 0.0
2017-Oct-10 00:30N 34°07' E 135°07'0 0.1
2017-Oct-09 23:59N 34°07' E 135°07'0 0.1
2017-Oct-09 19:42N 34°08' E 135°07'0 0.1
2017-Oct-09 19:12N 34°08' E 135°07'0 0.1
2017-Oct-09 18:54N 34°08' E 135°07'0 0.0
2017-Oct-09 18:24N 34°08' E 135°07'0 0.0
2017-Oct-09 18:00N 34°08' E 135°07'0 0.0
2017-Oct-09 17:27N 34°08' E 135°07'0 0.9
2017-Oct-09 17:01N 34°08' E 135°07'612.4
2017-Oct-09 16:31N 34°12' E 135°02'912.2
2017-Oct-09 15:48N 34°21' E 134°60'413.1
2017-Oct-09 15:27N 34°24' E 135°04'613.6
2017-Oct-09 15:00N 34°27' E 135°10'713.6
2017-Oct-09 14:30N 34°31' E 135°17'713.0
2017-Oct-09 14:00N 34°33' E 135°24'1 0.9
2017-Oct-09 12:29N 34°33' E 135°26'0 0.0
2017-Oct-09 11:53N 34°33' E 135°26'0 0.0
2017-Oct-09 11:29N 34°33' E 135°26'0 0.0
2017-Oct-09 10:47N 34°33' E 135°26'0 0.0
2017-Oct-09 10:29N 34°33' E 135°26'0 0.0
2017-Oct-09 09:59N 34°33' E 135°26'0 0.0
2017-Oct-09 09:23N 34°33' E 135°26'0 0.0
2017-Oct-09 08:59N 34°33' E 135°26'0 0.0
2017-Oct-09 08:29N 34°33' E 135°26'0 0.0
2017-Oct-09 07:59N 34°33' E 135°26'0 0.0
2017-Oct-09 07:29N 34°33' E 135°26'0 0.0
2017-Oct-09 06:29N 34°33' E 135°26'0 0.0
2017-Oct-09 02:33N 34°33' E 135°26'0 0.9
2017-Oct-09 02:30N 34°33' E 135°26'4 7.6
2017-Oct-09 01:56N 34°33' E 135°20'1 3.0
2017-Oct-09 01:28N 34°33' E 135°19'0 0.0
2017-Oct-09 00:52N 34°33' E 135°19'0 0.1
2017-Oct-09 00:28N 34°33' E 135°19'0 0.1
2017-Oct-08 23:58N 34°33' E 135°19'0 0.0
2017-Oct-08 23:16N 34°33' E 135°19'0 0.0
2017-Oct-08 22:58N 34°33' E 135°19'0 0.0
2017-Oct-08 22:28N 34°33' E 135°19'0 0.0
2017-Oct-08 21:58N 34°33' E 135°19'0 0.0
2017-Oct-08 21:28N 34°33' E 135°19'0 0.0
2017-Oct-08 20:16N 34°33' E 135°19'0 0.0
2017-Oct-08 19:59N 34°33' E 135°19'511.2
2017-Oct-08 19:30N 34°34' E 135°12'815.8
2017-Oct-08 19:00N 34°36' E 135°03'816.7
2017-Oct-08 18:30N 34°35' E 134°53'  
Track history (hours):
 
Tides and Currents Weather Stations Pressure Air Temp Water Temp Dewpoint Dewpoint Depression Visibility Wind Speed Wind Dir Waves Ship Positions

Kinyo Maru No.2

Last reported at 2017-Oct-18 09:51 UTC. Time now 2017-Oct-19 14:30 UTC.
Position N 34°33' E 134°45'.

Length 104 m; draft 4.8 m.

Type: Tanker. MMSI: 431001757.

Date/timePositionNaut miles runAvg speedWind from/ knotsBaromVisibWave heightAir tempDewpointWater temp
2017-Oct-18 09:51N 34°33' E 134°45'616.6
2017-Oct-18 09:30N 34°34' E 134°51'816.6
2017-Oct-18 09:01N 34°38' E 135°00'611.9
2017-Oct-18 08:30N 34°33' E 135°04'914.5
2017-Oct-18 07:52N 34°24' E 135°02'714.2
2017-Oct-18 07:21N 34°17' E 134°59'514.2
2017-Oct-18 07:00N 34°13' E 135°03'7 1.0
2017-Oct-18 00:12N 34°07' E 135°07'0 0.7
2017-Oct-17 23:58N 34°07' E 135°07'0 0.1
2017-Oct-17 22:31N 34°08' E 135°07'0 6.6
2017-Oct-17 22:30N 34°08' E 135°07'510.2
2017-Oct-17 22:00N 34°11' E 135°03'712.5
2017-Oct-17 21:29N 34°17' E 134°58'713.0
2017-Oct-17 20:58N 34°23' E 134°60'613.4
2017-Oct-17 20:29N 34°30' E 135°02'612.3
2017-Oct-17 20:01N 34°35' E 135°03'610.5
2017-Oct-17 19:28N 34°36' E 134°56'  
2017-Oct-15 10:50N 34°34' E 134°49'515.1
2017-Oct-15 10:30N 34°36' E 134°55'713.3
2017-Oct-15 10:00N 34°36' E 135°03'713.8
2017-Oct-15 09:30N 34°35' E 135°11'713.8
2017-Oct-15 09:00N 34°33' E 135°20'4 0.4
2017-Oct-14 22:55N 34°32' E 135°24'0 0.5
2017-Oct-14 22:31N 34°32' E 135°24'4 7.8
2017-Oct-14 22:01N 34°32' E 135°19'1 3.0
2017-Oct-14 21:30N 34°31' E 135°18'4 7.9
2017-Oct-14 21:00N 34°29' E 135°14'713.2
2017-Oct-14 20:30N 34°25' E 135°08'713.5
2017-Oct-14 19:59N 34°20' E 135°01'510.8
2017-Oct-14 19:30N 34°15' E 135°01'612.8
2017-Oct-14 19:01N 34°13' E 135°08'0 0.3
2017-Oct-14 18:30N 34°13' E 135°08'0 0.0
2017-Oct-14 18:00N 34°13' E 135°08'0 0.0
2017-Oct-14 17:30N 34°13' E 135°08'0 0.0
2017-Oct-14 17:00N 34°13' E 135°08'0 0.0
2017-Oct-14 16:30N 34°13' E 135°08'0 0.0
2017-Oct-14 16:00N 34°13' E 135°08'0 0.0
2017-Oct-14 15:30N 34°13' E 135°08'0 0.0
2017-Oct-14 15:00N 34°13' E 135°08'0 0.0
2017-Oct-14 14:30N 34°13' E 135°08'0 0.0
2017-Oct-14 14:00N 34°13' E 135°08'0 0.0
2017-Oct-14 13:30N 34°13' E 135°08'0 0.0
2017-Oct-14 13:00N 34°13' E 135°08'0 0.0
2017-Oct-14 12:30N 34°13' E 135°08'0 0.0
2017-Oct-14 12:00N 34°13' E 135°08'0 0.0
2017-Oct-14 11:30N 34°13' E 135°08'0 0.0
2017-Oct-14 11:00N 34°13' E 135°08'0 0.0
2017-Oct-14 10:30N 34°13' E 135°08'0 0.0
2017-Oct-14 10:00N 34°13' E 135°08'0 0.0
2017-Oct-14 09:30N 34°13' E 135°08'0 0.0
2017-Oct-14 09:00N 34°13' E 135°08'0 0.0
2017-Oct-14 08:30N 34°13' E 135°08'0 0.0
2017-Oct-14 08:00N 34°13' E 135°08'0 0.0
2017-Oct-14 07:30N 34°13' E 135°08'0 0.0
2017-Oct-14 07:00N 34°13' E 135°08'0 0.0
2017-Oct-14 06:30N 34°13' E 135°08'0 0.0
2017-Oct-14 06:00N 34°13' E 135°08'0 0.0
2017-Oct-14 05:30N 34°13' E 135°08'0 0.0
2017-Oct-14 05:00N 34°13' E 135°08'0 0.0
2017-Oct-14 04:30N 34°13' E 135°08'0 0.0
2017-Oct-14 04:00N 34°13' E 135°08'0 0.0
2017-Oct-14 03:30N 34°13' E 135°08'0 0.0
2017-Oct-14 03:00N 34°13' E 135°08'0 0.0
2017-Oct-14 02:30N 34°13' E 135°08'0 0.0
2017-Oct-14 02:00N 34°13' E 135°08'0 0.0
2017-Oct-14 01:30N 34°13' E 135°08'0 0.0
2017-Oct-14 01:00N 34°13' E 135°08'0 0.0
2017-Oct-14 00:30N 34°13' E 135°08'0 0.0
2017-Oct-14 00:00N 34°13' E 135°08'0 0.0
2017-Oct-13 23:30N 34°13' E 135°08'0 0.0
2017-Oct-13 23:00N 34°13' E 135°08'0 0.0
2017-Oct-13 22:30N 34°13' E 135°08'0 0.0
2017-Oct-13 22:00N 34°13' E 135°08'0 0.0
2017-Oct-13 21:30N 34°13' E 135°08'0 0.0
2017-Oct-13 21:00N 34°13' E 135°08'0 0.0
2017-Oct-13 20:30N 34°13' E 135°08'0 0.0
2017-Oct-13 20:00N 34°13' E 135°08'0 0.0
2017-Oct-13 19:30N 34°13' E 135°08'0 0.0
2017-Oct-13 19:00N 34°13' E 135°08'0 0.0
2017-Oct-13 18:30N 34°13' E 135°08'0 0.0
2017-Oct-13 18:00N 34°13' E 135°08'0 0.0
2017-Oct-13 17:30N 34°13' E 135°08'0 0.0
2017-Oct-13 17:00N 34°13' E 135°08'0 0.0
2017-Oct-13 16:30N 34°13' E 135°08'0 0.0
2017-Oct-13 16:00N 34°13' E 135°08'0 0.0
2017-Oct-13 15:30N 34°13' E 135°08'0 0.0
2017-Oct-13 15:00N 34°13' E 135°08'0 0.0
2017-Oct-13 14:30N 34°13' E 135°08'0 0.0
2017-Oct-13 14:00N 34°13' E 135°08'0 0.0
2017-Oct-13 13:30N 34°13' E 135°08'0 0.0
2017-Oct-13 13:00N 34°13' E 135°08'0 0.0
2017-Oct-13 12:30N 34°13' E 135°08'0 0.0
2017-Oct-13 11:54N 34°13' E 135°08'0 0.0
2017-Oct-13 11:30N 34°13' E 135°08'0 0.0
2017-Oct-13 11:00N 34°13' E 135°08'0 0.0
2017-Oct-13 10:30N 34°13' E 135°08'0 0.0
2017-Oct-13 10:00N 34°13' E 135°08'0 0.0
2017-Oct-13 09:30N 34°13' E 135°08'0 0.0
2017-Oct-13 09:00N 34°13' E 135°08'0 0.0
2017-Oct-13 08:30N 34°13' E 135°08'0 0.0
2017-Oct-13 08:01N 34°13' E 135°08'2 4.0
2017-Oct-13 07:30N 34°12' E 135°06'5 9.1
2017-Oct-13 07:00N 34°07' E 135°07'0 0.0
2017-Oct-12 22:06N 34°07' E 135°07'0 0.0
2017-Oct-12 22:00N 34°07' E 135°07'1 1.3
2017-Oct-12 21:30N 34°08' E 135°07'0 0.6
2017-Oct-12 21:00N 34°08' E 135°07'0 0.0
2017-Oct-12 20:30N 34°08' E 135°07'0 0.0
2017-Oct-12 20:00N 34°08' E 135°07'0 0.0
2017-Oct-12 19:30N 34°08' E 135°07'0 0.0
2017-Oct-12 19:00N 34°08' E 135°07'0 0.0
2017-Oct-12 18:30N 34°08' E 135°07'0 0.0
2017-Oct-12 18:00N 34°08' E 135°07'0 0.0
2017-Oct-12 17:30N 34°08' E 135°07'0 0.0
2017-Oct-12 17:00N 34°08' E 135°07'0 0.0
2017-Oct-12 16:30N 34°08' E 135°07'0 0.0
2017-Oct-12 15:57N 34°08' E 135°07'0 0.0
2017-Oct-12 15:27N 34°08' E 135°07'0 0.0
2017-Oct-12 15:00N 34°08' E 135°07'0 0.0
2017-Oct-12 14:30N 34°08' E 135°07'0 0.0
2017-Oct-12 14:00N 34°08' E 135°07'0 0.0
2017-Oct-12 13:30N 34°08' E 135°07'0 0.0
2017-Oct-12 13:00N 34°08' E 135°07'0 0.0
2017-Oct-12 12:27N 34°08' E 135°07'0 0.0
2017-Oct-12 11:54N 34°08' E 135°07'0 0.0
2017-Oct-12 11:30N 34°08' E 135°07'1 2.5
2017-Oct-12 11:00N 34°09' E 135°06'713.3
2017-Oct-12 10:30N 34°14' E 135°01'612.7
2017-Oct-12 10:00N 34°20' E 134°60'713.5
2017-Oct-12 09:30N 34°25' E 135°06'714.1
2017-Oct-12 09:00N 34°29' E 135°13'713.1
2017-Oct-12 08:31N 34°32' E 135°20'0 0.2
2017-Oct-12 07:56N 34°32' E 135°20'0 0.0
2017-Oct-12 07:20N 34°32' E 135°20'0 0.4
2017-Oct-12 07:00N 34°32' E 135°20'5 8.9
2017-Oct-12 06:28N 34°33' E 135°26'0 0.0
2017-Oct-11 23:53N 34°33' E 135°26'0 0.0
2017-Oct-11 23:23N 34°33' E 135°26'0 0.0
2017-Oct-11 22:53N 34°33' E 135°26'0 0.0
2017-Oct-11 22:29N 34°33' E 135°26'0 0.0
2017-Oct-11 21:53N 34°33' E 135°26'0 0.0
2017-Oct-11 21:29N 34°33' E 135°26'0 0.0
2017-Oct-11 20:47N 34°33' E 135°26'0 0.0
2017-Oct-11 20:23N 34°33' E 135°26'0 0.0
2017-Oct-11 19:47N 34°33' E 135°26'0 0.0
2017-Oct-11 19:17N 34°33' E 135°26'0 0.0
2017-Oct-11 18:53N 34°33' E 135°26'0 0.0
2017-Oct-11 18:05N 34°33' E 135°26'0 0.1
2017-Oct-11 17:59N 34°33' E 135°26'0 0.0
2017-Oct-11 17:29N 34°33' E 135°26'0 0.0
2017-Oct-11 16:59N 34°33' E 135°26'6 0.3
2017-Oct-11 00:00N 34°32' E 135°19'0 0.0
2017-Oct-10 23:30N 34°32' E 135°19'0 0.0
2017-Oct-10 23:00N 34°32' E 135°19'0 0.0
2017-Oct-10 22:29N 34°32' E 135°19'0 0.0
2017-Oct-10 21:59N 34°32' E 135°19'0 0.1
2017-Oct-10 21:30N 34°32' E 135°19'0 0.0
2017-Oct-10 21:00N 34°32' E 135°19'0 0.0
2017-Oct-10 20:30N 34°32' E 135°19'0 0.1
2017-Oct-10 20:00N 34°32' E 135°19'511.1
2017-Oct-10 19:30N 34°29' E 135°13'612.8
2017-Oct-10 19:00N 34°25' E 135°08'612.7
2017-Oct-10 18:30N 34°20' E 135°02'611.1
2017-Oct-10 18:00N 34°15' E 134°60'713.8
2017-Oct-10 17:30N 34°10' E 135°05'3 6.6
2017-Oct-10 17:00N 34°07' E 135°07'0 0.0
2017-Oct-10 00:41N 34°07' E 135°07'0 0.0
2017-Oct-10 00:30N 34°07' E 135°07'0 0.1
2017-Oct-09 23:59N 34°07' E 135°07'0 0.1
2017-Oct-09 19:42N 34°08' E 135°07'0 0.1
2017-Oct-09 19:12N 34°08' E 135°07'0 0.1
2017-Oct-09 18:54N 34°08' E 135°07'0 0.0
2017-Oct-09 18:24N 34°08' E 135°07'0 0.0
2017-Oct-09 18:00N 34°08' E 135°07'0 0.0
2017-Oct-09 17:27N 34°08' E 135°07'0 0.9
2017-Oct-09 17:01N 34°08' E 135°07'612.4
2017-Oct-09 16:31N 34°12' E 135°02'912.2
2017-Oct-09 15:48N 34°21' E 134°60'413.1
2017-Oct-09 15:27N 34°24' E 135°04'613.6
2017-Oct-09 15:00N 34°27' E 135°10'713.6
2017-Oct-09 14:30N 34°31' E 135°17'713.0
2017-Oct-09 14:00N 34°33' E 135°24'1 0.9
2017-Oct-09 12:29N 34°33' E 135°26'0 0.0
2017-Oct-09 11:53N 34°33' E 135°26'0 0.0
2017-Oct-09 11:29N 34°33' E 135°26'0 0.0
2017-Oct-09 10:47N 34°33' E 135°26'0 0.0
2017-Oct-09 10:29N 34°33' E 135°26'0 0.0
2017-Oct-09 09:59N 34°33' E 135°26'0 0.0
2017-Oct-09 09:23N 34°33' E 135°26'0 0.0
2017-Oct-09 08:59N 34°33' E 135°26'0 0.0
2017-Oct-09 08:29N 34°33' E 135°26'0 0.0
2017-Oct-09 07:59N 34°33' E 135°26'0 0.0
2017-Oct-09 07:29N 34°33' E 135°26'0 0.0
2017-Oct-09 06:29N 34°33' E 135°26'0 0.0
2017-Oct-09 02:33N 34°33' E 135°26'0 0.9
2017-Oct-09 02:30N 34°33' E 135°26'4 7.6
2017-Oct-09 01:56N 34°33' E 135°20'1 3.0
2017-Oct-09 01:28N 34°33' E 135°19'0 0.0
2017-Oct-09 00:52N 34°33' E 135°19'0 0.1
2017-Oct-09 00:28N 34°33' E 135°19'0 0.1
2017-Oct-08 23:58N 34°33' E 135°19'0 0.0
2017-Oct-08 23:16N 34°33' E 135°19'0 0.0
2017-Oct-08 22:58N 34°33' E 135°19'0 0.0
2017-Oct-08 22:28N 34°33' E 135°19'0 0.0
2017-Oct-08 21:58N 34°33' E 135°19'0 0.0
2017-Oct-08 21:28N 34°33' E 135°19'0 0.0
2017-Oct-08 20:16N 34°33' E 135°19'0 0.0
2017-Oct-08 19:59N 34°33' E 135°19'511.2
2017-Oct-08 19:30N 34°34' E 135°12'815.8
2017-Oct-08 19:00N 34°36' E 135°03'816.7
2017-Oct-08 18:30N 34°35' E 134°53'  

Dump ship's entire track history